createdAt,value
2023-05-05T00:00:27.565Z,99655.93
2023-05-05T00:00:27.899Z,99659.97
2023-05-05T00:00:28.105Z,99661.83
2023-05-05T00:00:28.320Z,99658.42
2023-05-05T00:00:28.583Z,99659.68
2023-05-05T00:00:29.035Z,99659.84
2023-05-05T00:01:27.625Z,99656.16
2023-05-05T00:01:27.986Z,99655.11
2023-05-05T00:01:28.194Z,99656.10
2023-05-05T00:01:28.407Z,99654.27
2023-05-05T00:01:28.616Z,99653.67
2023-05-05T00:01:29.117Z,99658.31
2023-05-05T00:02:27.863Z,99658.91
2023-05-05T00:02:28.149Z,99658.16
2023-05-05T00:02:28.381Z,99658.84
2023-05-05T00:02:28.624Z,99658.69
2023-05-05T00:02:28.919Z,99658.84
2023-05-05T00:02:29.202Z,99660.58
2023-05-05T00:05:56.215Z,99657.90
2023-05-05T00:05:56.401Z,99651.06
2023-05-05T00:05:56.615Z,99653.98
2023-05-05T00:05:56.836Z,99652.41
2023-05-05T00:05:57.104Z,99656.98
2023-05-05T00:05:57.384Z,99656.76
2023-05-05T00:06:56.218Z,99656.16
2023-05-05T00:06:56.418Z,99655.20
2023-05-05T00:06:56.629Z,99655.69
2023-05-05T00:06:56.838Z,99652.52
2023-05-05T00:06:57.054Z,99651.69
2023-05-05T00:06:57.409Z,99653.17
2023-05-05T00:07:56.333Z,99655.16
2023-05-05T00:07:56.534Z,99653.54
2023-05-05T00:07:56.746Z,99652.72
2023-05-05T00:07:56.952Z,99657.16
2023-05-05T00:07:57.161Z,99653.67
2023-05-05T00:07:57.507Z,99654.17
2023-05-05T00:08:56.410Z,99655.00
2023-05-05T00:08:56.615Z,99656.92
2023-05-05T00:08:56.805Z,99655.00
2023-05-05T00:08:57.030Z,99656.36
2023-05-05T00:08:57.220Z,99654.11
2023-05-05T00:08:57.587Z,99656.66
2023-05-05T00:09:56.404Z,99653.11
2023-05-05T00:09:56.785Z,99654.00
2023-05-05T00:09:56.936Z,99654.77
2023-05-05T00:09:57.164Z,99653.84
2023-05-05T00:09:57.352Z,99655.83
2023-05-05T00:09:57.701Z,99651.02
2023-05-05T00:10:56.404Z,99648.54
2023-05-05T00:10:56.815Z,99646.66
2023-05-05T00:10:56.979Z,99650.20
2023-05-05T00:10:57.194Z,99651.02
2023-05-05T00:10:57.553Z,99648.97
2023-05-05T00:10:57.859Z,99649.07
2023-05-05T00:11:56.536Z,99648.24
2023-05-05T00:11:56.882Z,99645.39
2023-05-05T00:11:57.073Z,99640.09
2023-05-05T00:11:57.282Z,99646.81
2023-05-05T00:11:57.491Z,99646.92
2023-05-05T00:11:57.993Z,99647.74
2023-05-05T00:12:56.731Z,99646.42
2023-05-05T00:12:56.986Z,99646.75
2023-05-05T00:12:57.194Z,99646.38
2023-05-05T00:12:57.428Z,99647.88
2023-05-05T00:12:57.719Z,99646.38
2023-05-05T00:12:58.044Z,99649.07
2023-05-05T00:13:56.649Z,99645.59
2023-05-05T00:13:56.992Z,99646.72
2023-05-05T00:13:57.205Z,99646.48
2023-05-05T00:13:57.421Z,99648.24
2023-05-05T00:13:57.755Z,99647.55
2023-05-05T00:13:58.160Z,99647.74
2023-05-05T00:14:56.759Z,99642.77
2023-05-05T00:14:57.147Z,99643.94
2023-05-05T00:14:57.359Z,99644.56
2023-05-05T00:14:57.570Z,99646.55
2023-05-05T00:14:57.775Z,99644.66
2023-05-05T00:14:58.303Z,99645.72
2023-05-05T00:15:56.794Z,99644.39
2023-05-05T00:15:57.274Z,99645.88
2023-05-05T00:15:57.494Z,99644.27
2023-05-05T00:15:57.714Z,99643.56
2023-05-05T00:15:57.915Z,99642.73
2023-05-05T00:15:58.407Z,99646.81
2023-05-05T00:16:56.945Z,99643.73
2023-05-05T00:16:57.401Z,99645.55
2023-05-05T00:16:57.619Z,99646.05
2023-05-05T00:16:57.887Z,99646.91
2023-05-05T00:16:58.124Z,99646.48
2023-05-05T00:16:58.482Z,99647.08
2023-05-05T00:17:56.938Z,99643.00
2023-05-05T00:17:57.470Z,99643.73
2023-05-05T00:17:57.705Z,99642.73
2023-05-05T00:17:58.003Z,99642.56
2023-05-05T00:17:58.232Z,99646.55
2023-05-05T00:17:58.622Z,99645.25
2023-05-05T00:18:56.986Z,99641.11
2023-05-05T00:18:57.496Z,99645.39
2023-05-05T00:18:57.702Z,99646.88
2023-05-05T00:18:57.908Z,99644.16
2023-05-05T00:18:58.253Z,99641.11
2023-05-05T00:18:58.601Z,99646.74
2023-05-05T00:19:57.071Z,99637.30
2023-05-05T00:19:57.548Z,99641.34
2023-05-05T00:19:57.787Z,99643.33
2023-05-05T00:19:57.982Z,99639.28
2023-05-05T00:19:58.330Z,99638.45
2023-05-05T00:19:58.683Z,99638.79
2023-05-05T00:20:57.101Z,99641.41
2023-05-05T00:20:57.619Z,99641.41
2023-05-05T00:20:57.832Z,99640.84
2023-05-05T00:20:58.057Z,99636.59
2023-05-05T00:20:58.409Z,99641.17
2023-05-05T00:20:58.739Z,99642.06
2023-05-05T00:21:57.227Z,99637.86
2023-05-05T00:21:57.725Z,99634.11
2023-05-05T00:21:58.003Z,99636.27
2023-05-05T00:21:58.212Z,99637.92
2023-05-05T00:21:58.590Z,99638.19
2023-05-05T00:21:58.825Z,99639.25
2023-05-05T00:22:57.283Z,99634.30
2023-05-05T00:22:57.778Z,99637.45
2023-05-05T00:22:58.067Z,99635.70
2023-05-05T00:22:58.274Z,99636.86
2023-05-05T00:22:58.638Z,99636.45
2023-05-05T00:22:58.872Z,99635.03
2023-05-05T00:23:57.303Z,99638.34
2023-05-05T00:23:57.819Z,99639.77
2023-05-05T00:23:58.079Z,99640.72
2023-05-05T00:23:58.298Z,99640.06
2023-05-05T00:23:58.647Z,99640.56
2023-05-05T00:23:58.948Z,99637.34
2023-05-05T00:24:57.429Z,99636.28
2023-05-05T00:24:58.003Z,99636.19
2023-05-05T00:24:58.187Z,99640.03
2023-05-05T00:24:58.424Z,99639.03
2023-05-05T00:24:58.771Z,99640.76
2023-05-05T00:24:59.095Z,99640.92
2023-05-05T00:25:57.557Z,99636.59
2023-05-05T00:25:58.133Z,99637.95
2023-05-05T00:25:58.309Z,99639.17
2023-05-05T00:25:58.550Z,99634.70
2023-05-05T00:25:58.789Z,99636.62
2023-05-05T00:25:59.212Z,99637.95
2023-05-05T00:26:57.646Z,99633.98
2023-05-05T00:26:58.228Z,99633.55
2023-05-05T00:26:58.446Z,99634.14
2023-05-05T00:26:58.638Z,99634.80
2023-05-05T00:26:58.862Z,99634.11
2023-05-05T00:26:59.317Z,99635.37
2023-05-05T00:27:57.731Z,99634.77
2023-05-05T00:27:58.221Z,99633.88
2023-05-05T00:27:58.430Z,99632.88
2023-05-05T00:27:58.639Z,99631.66
2023-05-05T00:27:58.900Z,99634.88
2023-05-05T00:27:59.403Z,99627.02
2023-05-05T00:28:57.814Z,99630.34
2023-05-05T00:28:58.322Z,99631.99
2023-05-05T00:28:58.499Z,99631.62
2023-05-05T00:28:58.720Z,99633.22
2023-05-05T00:28:58.924Z,99633.38
2023-05-05T00:28:59.407Z,99634.22
2023-05-05T00:29:57.917Z,99633.98
2023-05-05T00:29:58.418Z,99636.42
2023-05-05T00:29:58.612Z,99634.64
2023-05-05T00:29:58.822Z,99636.13
2023-05-05T00:29:59.035Z,99638.85
2023-05-05T00:29:59.497Z,99634.05
2023-05-05T00:30:57.954Z,99634.30
2023-05-05T00:30:58.479Z,99633.94
2023-05-05T00:30:58.702Z,99633.27
2023-05-05T00:30:58.972Z,99633.55
2023-05-05T00:30:59.227Z,99632.95
2023-05-05T00:30:59.684Z,99633.14
2023-05-05T00:31:58.003Z,99633.38
2023-05-05T00:31:58.533Z,99632.45
2023-05-05T00:31:58.732Z,99630.95
2023-05-05T00:31:58.984Z,99633.81
2023-05-05T00:31:59.224Z,99633.94
2023-05-05T00:31:59.770Z,99633.11
2023-05-05T00:33:22.813Z,99635.51
2023-05-05T00:33:23.011Z,99636.30
2023-05-05T00:33:23.248Z,99630.00
2023-05-05T00:33:23.461Z,99633.35
2023-05-05T00:33:23.724Z,99632.27
2023-05-05T00:33:23.963Z,99632.50
2023-05-05T00:34:22.812Z,99636.61
2023-05-05T00:34:23.030Z,99634.69
2023-05-05T00:34:23.222Z,99636.28
2023-05-05T00:34:23.451Z,99636.38
2023-05-05T00:34:23.809Z,99639.92
2023-05-05T00:34:24.016Z,99635.68
2023-05-05T00:35:22.902Z,99637.94
2023-05-05T00:35:23.114Z,99638.59
2023-05-05T00:35:23.320Z,99638.16
2023-05-05T00:35:23.532Z,99637.61
2023-05-05T00:35:23.915Z,99638.03
2023-05-05T00:35:24.131Z,99635.95
2023-05-05T00:36:22.973Z,99631.14
2023-05-05T00:36:23.176Z,99637.50
2023-05-05T00:36:23.399Z,99639.27
2023-05-05T00:36:23.595Z,99635.38
2023-05-05T00:36:23.970Z,99633.89
2023-05-05T00:36:24.171Z,99641.52
2023-05-05T00:37:23.004Z,99635.95
2023-05-05T00:37:23.205Z,99635.02
2023-05-05T00:37:23.417Z,99638.59
2023-05-05T00:37:23.624Z,99637.84
2023-05-05T00:37:23.971Z,99638.10
2023-05-05T00:37:24.179Z,99639.59
2023-05-05T00:38:23.078Z,99635.88
2023-05-05T00:38:23.289Z,99634.72
2023-05-05T00:38:23.502Z,99632.70
2023-05-05T00:38:23.712Z,99632.80
2023-05-05T00:38:24.065Z,99634.06
2023-05-05T00:38:24.274Z,99632.70
2023-05-05T00:39:23.115Z,99635.88
2023-05-05T00:39:23.336Z,99634.19
2023-05-05T00:39:23.545Z,99637.53
2023-05-05T00:39:23.746Z,99635.61
2023-05-05T00:39:24.118Z,99637.99
2023-05-05T00:39:24.304Z,99635.34
2023-05-05T00:40:23.185Z,99635.27
2023-05-05T00:40:23.381Z,99635.67
2023-05-05T00:40:23.661Z,99636.43
2023-05-05T00:40:23.824Z,99636.20
2023-05-05T00:40:24.156Z,99632.62
2023-05-05T00:40:24.370Z,99630.80
2023-05-05T00:41:23.273Z,99634.28
2023-05-05T00:41:23.486Z,99632.79
2023-05-05T00:41:23.691Z,99629.81
2023-05-05T00:41:23.901Z,99633.95
2023-05-05T00:41:24.262Z,99633.62
2023-05-05T00:41:24.469Z,99632.46
2023-05-05T00:43:37.474Z,99632.89
2023-05-05T00:43:37.720Z,99631.31
2023-05-05T00:43:37.902Z,99635.67
2023-05-05T00:43:38.114Z,99632.94
2023-05-05T00:43:38.304Z,99638.02
2023-05-05T00:43:38.548Z,99636.46
2023-05-05T00:44:37.583Z,99636.65
2023-05-05T00:44:37.786Z,99636.68
2023-05-05T00:44:37.992Z,99639.00
2023-05-05T00:44:38.222Z,99636.02
2023-05-05T00:44:38.426Z,99638.64
2023-05-05T00:44:38.624Z,99639.23
2023-05-05T00:45:37.656Z,99631.45
2023-05-05T00:45:37.859Z,99630.36
2023-05-05T00:45:38.072Z,99632.71
2023-05-05T00:45:38.283Z,99632.34
2023-05-05T00:45:38.488Z,99632.55
2023-05-05T00:45:38.698Z,99629.03
2023-05-05T00:46:37.769Z,99633.55
2023-05-05T00:46:37.943Z,99631.56
2023-05-05T00:46:38.170Z,99633.05
2023-05-05T00:46:38.370Z,99633.18
2023-05-05T00:46:38.597Z,99632.55
2023-05-05T00:46:38.809Z,99634.04
2023-05-05T00:47:37.906Z,99632.28
2023-05-05T00:47:38.114Z,99632.38
2023-05-05T00:47:38.317Z,99631.39
2023-05-05T00:47:38.551Z,99631.06
2023-05-05T00:47:38.749Z,99631.12
2023-05-05T00:47:38.983Z,99630.56
2023-05-05T00:48:37.980Z,99632.85
2023-05-05T00:48:38.190Z,99634.55
2023-05-05T00:48:38.397Z,99633.22
2023-05-05T00:48:38.607Z,99633.45
2023-05-05T00:48:38.821Z,99630.73
2023-05-05T00:48:39.024Z,99633.55
2023-05-05T00:49:38.200Z,99635.99
2023-05-05T00:49:38.486Z,99632.11
2023-05-05T00:49:38.705Z,99635.53
2023-05-05T00:49:38.954Z,99634.70
2023-05-05T00:49:39.155Z,99633.44
2023-05-05T00:49:39.417Z,99631.84
2023-05-05T00:50:38.170Z,99631.67
2023-05-05T00:50:38.586Z,99631.84
2023-05-05T00:50:38.764Z,99632.77
2023-05-05T00:50:38.976Z,99632.50
2023-05-05T00:50:39.179Z,99631.55
2023-05-05T00:50:39.390Z,99630.02
2023-05-05T00:51:38.301Z,99630.45
2023-05-05T00:51:38.658Z,99633.44
2023-05-05T00:51:38.872Z,99634.00
2023-05-05T00:51:39.079Z,99636.91
2023-05-05T00:51:39.296Z,99635.32
2023-05-05T00:51:39.494Z,99637.67
2023-05-05T00:52:38.405Z,99635.09
2023-05-05T00:52:38.739Z,99633.03
2023-05-05T00:52:38.949Z,99636.81
2023-05-05T00:52:39.159Z,99631.38
2023-05-05T00:52:39.371Z,99637.91
2023-05-05T00:52:39.576Z,99634.83
2023-05-05T00:53:38.494Z,99637.30
2023-05-05T00:53:38.877Z,99639.49
2023-05-05T00:53:39.081Z,99638.50
2023-05-05T00:53:39.342Z,99638.50
2023-05-05T00:53:39.512Z,99638.50
2023-05-05T00:53:39.741Z,99637.41
2023-05-05T00:54:38.608Z,99635.74
2023-05-05T00:54:38.957Z,99635.34
2023-05-05T00:54:39.169Z,99635.80
2023-05-05T00:54:39.383Z,99635.34
2023-05-05T00:54:39.593Z,99635.97
2023-05-05T00:54:39.797Z,99633.85
2023-05-05T00:55:38.699Z,99633.98
2023-05-05T00:55:39.045Z,99632.48
2023-05-05T00:55:39.251Z,99634.02
2023-05-05T00:55:39.456Z,99634.91
2023-05-05T00:55:39.669Z,99637.95
2023-05-05T00:55:39.885Z,99633.64
2023-05-05T00:56:38.829Z,99633.52
2023-05-05T00:56:39.155Z,99633.48
2023-05-05T00:56:39.366Z,99635.41
2023-05-05T00:56:39.575Z,99632.85
2023-05-05T00:56:39.790Z,99632.82
2023-05-05T00:56:39.996Z,99633.31
2023-05-05T00:57:38.911Z,99632.66
2023-05-05T00:57:39.258Z,99634.75
2023-05-05T00:57:39.469Z,99633.69
2023-05-05T00:57:39.681Z,99635.67
2023-05-05T00:57:39.977Z,99635.17
2023-05-05T00:57:40.254Z,99635.34
2023-05-05T00:58:38.954Z,99630.34
2023-05-05T00:58:39.285Z,99633.59
2023-05-05T00:58:39.510Z,99629.95
2023-05-05T00:58:39.708Z,99634.14
2023-05-05T00:58:39.918Z,99635.41
2023-05-05T00:58:40.276Z,99634.91
2023-05-05T00:59:39.050Z,99633.19
2023-05-05T00:59:39.388Z,99633.19
2023-05-05T00:59:39.597Z,99630.54
2023-05-05T00:59:39.807Z,99632.33
2023-05-05T00:59:40.030Z,99632.66
2023-05-05T00:59:40.373Z,99632.82
2023-05-05T01:00:39.097Z,99634.41
2023-05-05T01:00:39.454Z,99633.52
2023-05-05T01:00:39.697Z,99632.98
2023-05-05T01:00:39.896Z,99634.52
2023-05-05T01:00:40.101Z,99632.09
2023-05-05T01:00:40.453Z,99630.70
2023-05-05T01:01:39.257Z,99633.02
2023-05-05T01:01:39.628Z,99634.13
2023-05-05T01:01:39.860Z,99634.57
2023-05-05T01:01:40.055Z,99638.81
2023-05-05T01:01:40.275Z,99633.14
2023-05-05T01:01:40.532Z,99634.34
2023-05-05T01:02:39.433Z,99629.59
2023-05-05T01:02:39.754Z,99629.59
2023-05-05T01:02:40.083Z,99632.08
2023-05-05T01:02:40.389Z,99631.35
2023-05-05T01:02:40.791Z,99631.84
2023-05-05T01:02:41.071Z,99634.13
2023-05-05T01:03:39.479Z,99634.55
2023-05-05T01:03:39.835Z,99633.89
2023-05-05T01:03:40.213Z,99633.46
2023-05-05T01:03:40.618Z,99628.98
2023-05-05T01:03:40.894Z,99628.86
2023-05-05T01:03:41.148Z,99635.38
2023-05-05T01:04:39.480Z,99625.44
2023-05-05T01:04:39.837Z,99627.50
2023-05-05T01:04:40.198Z,99627.86
2023-05-05T01:04:40.551Z,99633.00
2023-05-05T01:04:40.912Z,99629.75
2023-05-05T01:04:41.121Z,99627.83
2023-05-05T01:05:39.597Z,99631.80
2023-05-05T01:05:39.912Z,99632.66
2023-05-05T01:05:40.280Z,99630.83
2023-05-05T01:05:40.632Z,99628.52
2023-05-05T01:05:40.987Z,99630.67
2023-05-05T01:05:41.188Z,99629.24
2023-05-05T01:06:39.607Z,99632.21
2023-05-05T01:06:39.957Z,99631.95
2023-05-05T01:06:40.305Z,99631.38
2023-05-05T01:06:40.673Z,99629.62
2023-05-05T01:06:41.025Z,99631.78
2023-05-05T01:06:41.231Z,99633.44
2023-05-05T01:07:39.727Z,99627.50
2023-05-05T01:07:40.086Z,99626.41
2023-05-05T01:07:40.425Z,99630.22
2023-05-05T01:07:40.782Z,99628.89
2023-05-05T01:07:41.123Z,99632.47
2023-05-05T01:07:41.349Z,99629.16
2023-05-05T01:08:39.828Z,99625.97
2023-05-05T01:08:40.169Z,99625.34
2023-05-05T01:08:40.523Z,99627.89
2023-05-05T01:08:40.978Z,99628.88
2023-05-05T01:08:41.220Z,99628.12
2023-05-05T01:08:41.425Z,99627.30
2023-05-05T01:09:39.853Z,99632.13
2023-05-05T01:09:40.202Z,99627.56
2023-05-05T01:09:40.546Z,99629.88
2023-05-05T01:09:41.051Z,99626.73
2023-05-05T01:09:41.262Z,99630.87
2023-05-05T01:09:41.458Z,99626.73
2023-05-05T01:10:40.004Z,99628.39
2023-05-05T01:10:40.207Z,99631.14
2023-05-05T01:10:40.568Z,99631.47
2023-05-05T01:10:41.086Z,99627.62
2023-05-05T01:10:41.292Z,99630.31
2023-05-05T01:10:41.517Z,99629.66
2023-05-05T01:11:40.095Z,99624.36
2023-05-05T01:11:40.306Z,99627.80
2023-05-05T01:11:40.659Z,99628.50
2023-05-05T01:11:41.170Z,99629.62
2023-05-05T01:11:41.376Z,99628.80
2023-05-05T01:11:41.598Z,99628.00
2023-05-05T01:12:40.121Z,99629.06
2023-05-05T01:12:40.324Z,99625.91
2023-05-05T01:12:40.713Z,99623.59
2023-05-05T01:12:41.194Z,99627.07
2023-05-05T01:12:41.402Z,99627.84
2023-05-05T01:12:41.742Z,99624.53
2023-05-05T01:13:40.264Z,99630.12
2023-05-05T01:13:40.473Z,99624.86
2023-05-05T01:13:40.689Z,99627.97
2023-05-05T01:13:41.190Z,99623.92
2023-05-05T01:13:41.401Z,99624.26
2023-05-05T01:13:41.758Z,99624.00
2023-05-05T01:14:40.374Z,99624.98
2023-05-05T01:14:40.580Z,99621.33
2023-05-05T01:14:40.836Z,99624.16
2023-05-05T01:14:41.313Z,99625.47
2023-05-05T01:14:41.518Z,99625.64
2023-05-05T01:14:41.871Z,99625.23
2023-05-05T01:15:40.372Z,99621.36
2023-05-05T01:15:40.726Z,99624.24
2023-05-05T01:15:40.932Z,99622.52
2023-05-05T01:15:41.410Z,99626.72
2023-05-05T01:15:41.632Z,99621.66
2023-05-05T01:15:41.968Z,99621.16
2023-05-05T01:16:40.553Z,99619.56
2023-05-05T01:16:40.803Z,99625.48
2023-05-05T01:16:41.100Z,99622.52
2023-05-05T01:16:41.523Z,99622.58
2023-05-05T01:16:41.892Z,99618.30
2023-05-05T01:16:42.141Z,99621.85
2023-05-05T01:17:40.619Z,99616.51
2023-05-05T01:17:40.868Z,99623.13
2023-05-05T01:17:41.087Z,99622.20
2023-05-05T01:17:41.577Z,99623.27
2023-05-05T01:17:41.966Z,99625.08
2023-05-05T01:17:42.217Z,99621.20
2023-05-05T01:18:40.625Z,99623.75
2023-05-05T01:18:40.836Z,99620.61
2023-05-05T01:18:41.054Z,99622.42
2023-05-05T01:18:41.678Z,99625.41
2023-05-05T01:18:42.016Z,99621.14
2023-05-05T01:18:42.232Z,99619.48
2023-05-05T01:19:40.762Z,99620.86
2023-05-05T01:19:40.971Z,99622.45
2023-05-05T01:19:41.184Z,99622.09
2023-05-05T01:19:41.788Z,99620.03
2023-05-05T01:19:42.139Z,99617.75
2023-05-05T01:19:42.357Z,99622.12
2023-05-05T01:20:40.795Z,99622.18
2023-05-05T01:20:40.976Z,99622.28
2023-05-05T01:20:41.193Z,99621.12
2023-05-05T01:20:41.819Z,99623.20
2023-05-05T01:20:42.164Z,99618.97
2023-05-05T01:20:42.376Z,99622.28
2023-05-05T01:21:40.788Z,99622.77
2023-05-05T01:21:41.001Z,99622.77
2023-05-05T01:21:41.236Z,99621.38
2023-05-05T01:21:41.832Z,99619.78
2023-05-05T01:21:42.163Z,99619.22
2023-05-05T01:21:42.377Z,99623.92
2023-05-05T01:22:40.816Z,99618.34
2023-05-05T01:22:41.028Z,99617.78
2023-05-05T01:22:41.242Z,99615.37
2023-05-05T01:22:41.848Z,99620.53
2023-05-05T01:22:42.201Z,99617.78
2023-05-05T01:22:42.409Z,99618.12
2023-05-05T01:23:40.874Z,99615.88
2023-05-05T01:23:41.076Z,99614.71
2023-05-05T01:23:41.291Z,99617.40
2023-05-05T01:23:41.911Z,99618.02
2023-05-05T01:23:42.258Z,99614.05
2023-05-05T01:23:42.472Z,99617.20
2023-05-05T01:24:40.978Z,99610.94
2023-05-05T01:24:41.194Z,99616.30
2023-05-05T01:24:41.395Z,99617.62
2023-05-05T01:24:42.023Z,99617.39
2023-05-05T01:24:42.373Z,99611.43
2023-05-05T01:24:42.584Z,99609.94
2023-05-05T01:25:41.104Z,99613.92
2023-05-05T01:25:41.326Z,99609.58
2023-05-05T01:25:41.520Z,99612.06
2023-05-05T01:25:42.164Z,99611.11
2023-05-05T01:25:42.530Z,99608.69
2023-05-05T01:25:42.737Z,99612.06
2023-05-05T01:26:41.228Z,99611.67
2023-05-05T01:26:41.439Z,99612.56
2023-05-05T01:26:41.653Z,99613.76
2023-05-05T01:26:42.270Z,99612.66
2023-05-05T01:26:42.652Z,99612.17
2023-05-05T01:26:42.863Z,99614.42
2023-05-05T01:27:41.318Z,99608.27
2023-05-05T01:27:41.518Z,99608.59
2023-05-05T01:27:41.729Z,99608.30
2023-05-05T01:27:42.357Z,99609.42
2023-05-05T01:27:42.711Z,99610.78
2023-05-05T01:27:42.924Z,99610.11
2023-05-05T01:28:41.313Z,99608.59
2023-05-05T01:28:41.528Z,99611.41
2023-05-05T01:28:41.740Z,99610.84
2023-05-05T01:28:42.380Z,99610.94
2023-05-05T01:28:42.736Z,99610.91
2023-05-05T01:28:42.936Z,99613.66
2023-05-05T01:29:41.458Z,99612.75
2023-05-05T01:29:41.667Z,99610.47
2023-05-05T01:29:41.873Z,99609.77
2023-05-05T01:29:42.496Z,99610.86
2023-05-05T01:29:42.840Z,99609.54
2023-05-05T01:29:43.055Z,99610.27
2023-05-05T01:30:41.532Z,99610.01
2023-05-05T01:30:41.744Z,99608.39
2023-05-05T01:30:41.948Z,99610.38
2023-05-05T01:30:42.580Z,99608.62
2023-05-05T01:30:42.938Z,99608.72
2023-05-05T01:30:43.155Z,99607.47
2023-05-05T01:31:41.618Z,99613.09
2023-05-05T01:31:41.948Z,99610.55
2023-05-05T01:31:42.230Z,99610.38
2023-05-05T01:31:42.735Z,99609.52
2023-05-05T01:31:43.080Z,99612.33
2023-05-05T01:31:43.338Z,99610.17
2023-05-05T01:32:41.752Z,99609.11
2023-05-05T01:32:41.965Z,99609.77
2023-05-05T01:32:42.333Z,99608.16
2023-05-05T01:32:42.820Z,99606.80
2023-05-05T01:32:43.160Z,99609.47
2023-05-05T01:32:43.429Z,99608.45
2023-05-05T01:33:41.725Z,99612.75
2023-05-05T01:33:41.965Z,99609.15
2023-05-05T01:33:42.439Z,99608.66
2023-05-05T01:33:42.796Z,99609.48
2023-05-05T01:33:43.277Z,99612.30
2023-05-05T01:33:43.502Z,99609.15
2023-05-05T01:34:41.884Z,99608.55
2023-05-05T01:34:42.106Z,99608.39
2023-05-05T01:34:42.432Z,99605.97
2023-05-05T01:34:42.807Z,99608.52
2023-05-05T01:34:43.295Z,99608.85
2023-05-05T01:34:43.499Z,99605.08
2023-05-05T01:35:42.002Z,99608.22
2023-05-05T01:35:42.210Z,99612.27
2023-05-05T01:35:42.553Z,99608.98
2023-05-05T01:35:42.895Z,99610.05
2023-05-05T01:35:43.388Z,99613.35
2023-05-05T01:35:43.598Z,99609.55
2023-05-05T01:36:42.066Z,99608.38
2023-05-05T01:36:42.350Z,99608.77
2023-05-05T01:36:42.590Z,99609.70
2023-05-05T01:36:42.939Z,99610.36
2023-05-05T01:36:43.455Z,99609.54
2023-05-05T01:36:43.666Z,99610.77
2023-05-05T01:37:42.172Z,99609.57
2023-05-05T01:37:42.337Z,99610.91
2023-05-05T01:37:42.683Z,99608.91
2023-05-05T01:37:43.032Z,99610.08
2023-05-05T01:37:43.521Z,99610.60
2023-05-05T01:37:43.720Z,99605.70
2023-05-05T01:38:42.219Z,99609.88
2023-05-05T01:38:42.419Z,99610.91
2023-05-05T01:38:42.758Z,99610.05
2023-05-05T01:38:43.110Z,99608.22
2023-05-05T01:38:43.650Z,99607.49
2023-05-05T01:38:43.859Z,99608.72
2023-05-05T01:39:42.248Z,99606.08
2023-05-05T01:39:42.456Z,99608.36
2023-05-05T01:39:42.805Z,99605.09
2023-05-05T01:39:43.165Z,99611.55
2023-05-05T01:39:43.651Z,99608.70
2023-05-05T01:39:43.867Z,99610.11
2023-05-05T01:40:42.341Z,99611.01
2023-05-05T01:40:42.586Z,99609.19
2023-05-05T01:40:42.905Z,99607.23
2023-05-05T01:40:43.244Z,99611.54
2023-05-05T01:40:43.732Z,99607.80
2023-05-05T01:40:43.946Z,99612.99
2023-05-05T01:41:42.414Z,99617.16
2023-05-05T01:41:42.634Z,99612.20
2023-05-05T01:41:42.970Z,99611.86
2023-05-05T01:41:43.345Z,99613.19
2023-05-05T01:41:43.847Z,99610.20
2023-05-05T01:41:44.053Z,99610.50
2023-05-05T01:42:42.568Z,99608.52
2023-05-05T01:42:42.754Z,99610.37
2023-05-05T01:42:43.122Z,99610.67
2023-05-05T01:42:43.494Z,99608.52
2023-05-05T01:42:43.890Z,99607.85
2023-05-05T01:42:44.097Z,99607.12
2023-05-05T01:43:42.628Z,99612.23
2023-05-05T01:43:42.834Z,99605.88
2023-05-05T01:43:43.181Z,99610.81
2023-05-05T01:43:43.517Z,99612.17
2023-05-05T01:43:43.884Z,99613.06
2023-05-05T01:43:44.095Z,99609.52
2023-05-05T01:44:42.760Z,99608.14
2023-05-05T01:44:42.973Z,99610.12
2023-05-05T01:44:43.182Z,99613.11
2023-05-05T01:44:43.540Z,99609.17
2023-05-05T01:44:44.014Z,99609.40
2023-05-05T01:44:44.232Z,99610.98
2023-05-05T01:45:42.899Z,99608.95
2023-05-05T01:45:43.089Z,99614.25
2023-05-05T01:45:43.314Z,99612.02
2023-05-05T01:45:43.666Z,99607.62
2023-05-05T01:45:44.151Z,99610.05
2023-05-05T01:45:44.412Z,99609.12
2023-05-05T01:46:42.941Z,99611.66
2023-05-05T01:46:43.138Z,99611.95
2023-05-05T01:46:43.364Z,99612.55
2023-05-05T01:46:43.729Z,99608.23
2023-05-05T01:46:44.202Z,99614.80
2023-05-05T01:46:44.410Z,99612.61
2023-05-05T01:48:23.053Z,99613.75
2023-05-05T01:48:23.298Z,99616.56
2023-05-05T01:48:23.510Z,99616.61
2023-05-05T01:48:23.735Z,99618.30
2023-05-05T01:48:23.976Z,99618.39
2023-05-05T01:48:24.175Z,99621.31
2023-05-05T01:49:23.124Z,99611.41
2023-05-05T01:49:23.329Z,99614.52
2023-05-05T01:49:23.537Z,99612.70
2023-05-05T01:49:23.749Z,99612.06
2023-05-05T01:49:23.957Z,99614.19
2023-05-05T01:49:24.166Z,99614.62
2023-05-05T01:50:23.203Z,99611.81
2023-05-05T01:50:23.408Z,99614.06
2023-05-05T01:50:23.614Z,99615.23
2023-05-05T01:50:23.825Z,99610.33
2023-05-05T01:50:24.032Z,99609.83
2023-05-05T01:50:24.236Z,99613.57
2023-05-05T01:51:23.317Z,99614.39
2023-05-05T01:51:23.525Z,99619.52
2023-05-05T01:51:23.732Z,99614.49
2023-05-05T01:51:23.944Z,99619.03
2023-05-05T01:51:24.156Z,99616.53
2023-05-05T01:51:24.375Z,99614.88
2023-05-05T01:52:23.348Z,99612.69
2023-05-05T01:52:23.559Z,99612.29
2023-05-05T01:52:23.772Z,99607.98
2023-05-05T01:52:23.982Z,99613.34
2023-05-05T01:52:24.191Z,99613.84
2023-05-05T01:52:24.400Z,99612.02
2023-05-05T01:53:23.427Z,99612.84
2023-05-05T01:53:23.623Z,99614.60
2023-05-05T01:53:23.836Z,99615.06
2023-05-05T01:53:24.057Z,99621.12
2023-05-05T01:53:24.266Z,99615.76
2023-05-05T01:53:24.476Z,99613.67
2023-05-05T01:54:28.451Z,99612.84
2023-05-05T01:54:28.658Z,99615.72
2023-05-05T01:54:28.871Z,99615.75
2023-05-05T01:54:29.091Z,99614.00
2023-05-05T01:54:29.306Z,99614.76
2023-05-05T01:54:29.504Z,99617.88
2023-05-05T01:55:28.592Z,99612.59
2023-05-05T01:55:28.794Z,99616.20
2023-05-05T01:55:29.005Z,99613.98
2023-05-05T01:55:29.212Z,99611.67
2023-05-05T01:55:29.425Z,99615.97
2023-05-05T01:55:29.639Z,99614.64
2023-05-05T01:56:28.604Z,99615.53
2023-05-05T01:56:28.804Z,99615.70
2023-05-05T01:56:29.016Z,99616.99
2023-05-05T01:56:29.220Z,99613.72
2023-05-05T01:56:29.436Z,99614.28
2023-05-05T01:56:29.644Z,99613.28
2023-05-05T01:57:28.638Z,99609.05
2023-05-05T01:57:28.871Z,99608.65
2023-05-05T01:57:29.058Z,99610.08
2023-05-05T01:57:29.265Z,99611.89
2023-05-05T01:57:29.473Z,99607.39
2023-05-05T01:57:29.686Z,99611.19
2023-05-05T01:58:28.733Z,99610.20
2023-05-05T01:58:28.950Z,99614.87
2023-05-05T01:58:29.155Z,99612.12
2023-05-05T01:58:29.391Z,99612.39
2023-05-05T01:58:29.682Z,99612.88
2023-05-05T01:58:29.898Z,99610.36
2023-05-05T01:59:28.778Z,99606.66
2023-05-05T01:59:28.986Z,99609.14
2023-05-05T01:59:29.195Z,99607.98
2023-05-05T01:59:29.408Z,99610.89
2023-05-05T01:59:29.750Z,99612.88
2023-05-05T01:59:29.963Z,99611.03
2023-05-05T02:00:51.218Z,99602.98
2023-05-05T02:00:51.426Z,99609.14
2023-05-05T02:00:51.633Z,99608.77
2023-05-05T02:00:51.884Z,99608.06
2023-05-05T02:00:52.061Z,99613.48
2023-05-05T02:00:52.328Z,99611.23
2023-05-05T02:01:51.315Z,99614.62
2023-05-05T02:01:51.522Z,99614.05
2023-05-05T02:01:51.728Z,99611.81
2023-05-05T02:01:51.945Z,99609.66
2023-05-05T02:01:52.165Z,99614.95
2023-05-05T02:01:52.356Z,99612.17
2023-05-05T02:02:51.414Z,99612.30
2023-05-05T02:02:51.691Z,99609.25
2023-05-05T02:02:51.932Z,99610.18